sensor_id;sensor_type;location;lat;lon;timestamp;P1;durP1;ratioP1;P2;durP2;ratioP2
11504;SDS011;5809;53.262;10.408;2023-04-03T00:00:10;9.63;;;3.27;;
11504;SDS011;5809;53.262;10.408;2023-04-03T00:02:37;7.40;;;3.60;;
11504;SDS011;5809;53.262;10.408;2023-04-03T00:05:07;11.10;;;3.53;;
11504;SDS011;5809;53.262;10.408;2023-04-03T00:07:34;7.93;;;3.50;;
11504;SDS011;5809;53.262;10.408;2023-04-03T00:10:01;9.17;;;4.20;;
11504;SDS011;5809;53.262;10.408;2023-04-03T00:12:29;8.17;;;4.03;;
11504;SDS011;5809;53.262;10.408;2023-04-03T00:14:55;6.20;;;2.90;;
11504;SDS011;5809;53.262;10.408;2023-04-03T00:17:22;9.37;;;3.50;;
11504;SDS011;5809;53.262;10.408;2023-04-03T00:19:49;5.90;;;2.57;;
11504;SDS011;5809;53.262;10.408;2023-04-03T00:22:18;7.07;;;2.50;;
11504;SDS011;5809;53.262;10.408;2023-04-03T00:24:45;9.13;;;2.93;;
11504;SDS011;5809;53.262;10.408;2023-04-03T00:27:12;6.23;;;2.40;;
11504;SDS011;5809;53.262;10.408;2023-04-03T00:29:40;8.93;;;3.10;;
11504;SDS011;5809;53.262;10.408;2023-04-03T00:32:07;6.10;;;3.00;;
11504;SDS011;5809;53.262;10.408;2023-04-03T00:34:35;6.47;;;2.70;;
11504;SDS011;5809;53.262;10.408;2023-04-03T00:37:02;6.13;;;3.03;;
11504;SDS011;5809;53.262;10.408;2023-04-03T00:39:30;7.60;;;2.90;;
11504;SDS011;5809;53.262;10.408;2023-04-03T00:41:57;7.90;;;3.03;;
11504;SDS011;5809;53.262;10.408;2023-04-03T00:47:26;8.17;;;2.83;;
11504;SDS011;5809;53.262;10.408;2023-04-03T00:52:22;8.47;;;3.30;;
11504;SDS011;5809;53.262;10.408;2023-04-03T00:54:54;9.07;;;3.10;;
11504;SDS011;5809;53.262;10.408;2023-04-03T00:57:24;11.17;;;3.63;;
11504;SDS011;5809;53.262;10.408;2023-04-03T00:59:53;9.37;;;3.53;;
11504;SDS011;5809;53.262;10.408;2023-04-03T01:02:22;7.17;;;2.70;;
11504;SDS011;5809;53.262;10.408;2023-04-03T01:04:50;8.43;;;3.07;;
11504;SDS011;5809;53.262;10.408;2023-04-03T01:07:18;6.77;;;3.40;;
11504;SDS011;5809;53.262;10.408;2023-04-03T01:09:48;8.00;;;3.40;;
11504;SDS011;5809;53.262;10.408;2023-04-03T01:12:20;8.10;;;3.50;;
11504;SDS011;5809;53.262;10.408;2023-04-03T01:14:49;6.63;;;3.17;;
11504;SDS011;5809;53.262;10.408;2023-04-03T01:17:26;7.17;;;3.57;;
11504;SDS011;5809;53.262;10.408;2023-04-03T01:19:57;9.77;;;3.70;;
11504;SDS011;5809;53.262;10.408;2023-04-03T01:22:51;7.67;;;3.47;;
11504;SDS011;5809;53.262;10.408;2023-04-03T01:25:23;7.50;;;3.30;;
11504;SDS011;5809;53.262;10.408;2023-04-03T01:27:52;11.20;;;3.37;;
11504;SDS011;5809;53.262;10.408;2023-04-03T01:30:20;7.90;;;3.30;;
11504;SDS011;5809;53.262;10.408;2023-04-03T01:32:52;9.43;;;3.30;;
11504;SDS011;5809;53.262;10.408;2023-04-03T01:35:19;8.30;;;3.20;;
11504;SDS011;5809;53.262;10.408;2023-04-03T01:37:46;8.73;;;3.03;;
11504;SDS011;5809;53.262;10.408;2023-04-03T01:40:13;10.40;;;3.63;;
11504;SDS011;5809;53.262;10.408;2023-04-03T01:42:40;8.03;;;3.47;;
11504;SDS011;5809;53.262;10.408;2023-04-03T01:45:08;8.03;;;3.60;;
11504;SDS011;5809;53.262;10.408;2023-04-03T01:47:35;7.40;;;4.03;;
11504;SDS011;5809;53.262;10.408;2023-04-03T01:50:04;10.13;;;3.93;;
11504;SDS011;5809;53.262;10.408;2023-04-03T01:52:31;8.93;;;3.90;;
11504;SDS011;5809;53.262;10.408;2023-04-03T01:54:58;7.87;;;3.43;;
11504;SDS011;5809;53.262;10.408;2023-04-03T01:57:25;7.30;;;3.63;;
11504;SDS011;5809;53.262;10.408;2023-04-03T01:59:52;14.73;;;4.27;;
11504;SDS011;5809;53.262;10.408;2023-04-03T02:02:19;11.33;;;4.20;;
11504;SDS011;5809;53.262;10.408;2023-04-03T02:04:47;8.63;;;3.50;;
11504;SDS011;5809;53.262;10.408;2023-04-03T02:07:15;7.70;;;4.00;;
11504;SDS011;5809;53.262;10.408;2023-04-03T02:09:42;10.93;;;3.40;;
11504;SDS011;5809;53.262;10.408;2023-04-03T02:12:09;10.47;;;3.30;;
11504;SDS011;5809;53.262;10.408;2023-04-03T02:14:36;6.97;;;3.63;;
11504;SDS011;5809;53.262;10.408;2023-04-03T02:17:03;11.40;;;3.67;;
11504;SDS011;5809;53.262;10.408;2023-04-03T02:19:33;7.33;;;3.50;;
11504;SDS011;5809;53.262;10.408;2023-04-03T02:22:00;10.47;;;4.07;;
11504;SDS011;5809;53.262;10.408;2023-04-03T02:24:29;11.60;;;3.93;;
11504;SDS011;5809;53.262;10.408;2023-04-03T02:26:56;7.43;;;3.97;;
11504;SDS011;5809;53.262;10.408;2023-04-03T02:29:23;10.47;;;4.27;;
11504;SDS011;5809;53.262;10.408;2023-04-03T02:31:50;12.53;;;4.20;;
11504;SDS011;5809;53.262;10.408;2023-04-03T02:34:17;10.13;;;3.90;;
11504;SDS011;5809;53.262;10.408;2023-04-03T02:36:44;9.50;;;3.70;;
11504;SDS011;5809;53.262;10.408;2023-04-03T02:39:11;8.07;;;3.77;;
11504;SDS011;5809;53.262;10.408;2023-04-03T02:41:40;8.30;;;3.70;;
11504;SDS011;5809;53.262;10.408;2023-04-03T02:44:08;8.00;;;3.73;;
11504;SDS011;5809;53.262;10.408;2023-04-03T02:46:36;8.97;;;3.47;;
11504;SDS011;5809;53.262;10.408;2023-04-03T02:49:04;9.33;;;3.83;;
11504;SDS011;5809;53.262;10.408;2023-04-03T02:51:31;9.50;;;4.30;;
11504;SDS011;5809;53.262;10.408;2023-04-03T02:53:58;8.43;;;3.83;;
11504;SDS011;5809;53.262;10.408;2023-04-03T02:56:25;11.73;;;4.93;;
11504;SDS011;5809;53.262;10.408;2023-04-03T02:58:54;8.77;;;4.97;;
11504;SDS011;5809;53.262;10.408;2023-04-03T03:01:21;14.10;;;5.17;;
11504;SDS011;5809;53.262;10.408;2023-04-03T03:03:48;9.20;;;5.57;;
11504;SDS011;5809;53.262;10.408;2023-04-03T03:06:16;13.67;;;5.00;;
11504;SDS011;5809;53.262;10.408;2023-04-03T03:08:43;9.60;;;4.80;;
11504;SDS011;5809;53.262;10.408;2023-04-03T03:11:10;11.53;;;4.90;;
11504;SDS011;5809;53.262;10.408;2023-04-03T03:13:38;11.33;;;4.70;;
11504;SDS011;5809;53.262;10.408;2023-04-03T03:16:07;9.30;;;4.63;;
11504;SDS011;5809;53.262;10.408;2023-04-03T03:18:34;8.87;;;4.17;;
11504;SDS011;5809;53.262;10.408;2023-04-03T03:21:02;12.93;;;4.43;;
11504;SDS011;5809;53.262;10.408;2023-04-03T03:23:30;10.40;;;4.43;;
11504;SDS011;5809;53.262;10.408;2023-04-03T03:25:58;7.90;;;3.93;;
11504;SDS011;5809;53.262;10.408;2023-04-03T03:28:27;12.97;;;4.20;;
11504;SDS011;5809;53.262;10.408;2023-04-03T03:30:55;8.47;;;4.10;;
11504;SDS011;5809;53.262;10.408;2023-04-03T03:33:24;9.23;;;4.03;;
11504;SDS011;5809;53.262;10.408;2023-04-03T03:35:51;7.23;;;3.93;;
11504;SDS011;5809;53.262;10.408;2023-04-03T03:38:19;8.17;;;4.17;;
11504;SDS011;5809;53.262;10.408;2023-04-03T03:40:46;11.43;;;4.30;;
11504;SDS011;5809;53.262;10.408;2023-04-03T03:43:13;8.70;;;3.87;;
11504;SDS011;5809;53.262;10.408;2023-04-03T03:45:40;10.83;;;3.80;;
11504;SDS011;5809;53.262;10.408;2023-04-03T03:48:07;8.03;;;3.63;;
11504;SDS011;5809;53.262;10.408;2023-04-03T03:50:36;7.13;;;3.40;;
11504;SDS011;5809;53.262;10.408;2023-04-03T03:53:03;10.03;;;3.77;;
11504;SDS011;5809;53.262;10.408;2023-04-03T03:55:30;8.33;;;4.10;;
11504;SDS011;5809;53.262;10.408;2023-04-03T03:57:57;9.17;;;3.80;;
11504;SDS011;5809;53.262;10.408;2023-04-03T04:00:25;8.40;;;4.00;;
11504;SDS011;5809;53.262;10.408;2023-04-03T04:02:52;8.40;;;4.30;;
11504;SDS011;5809;53.262;10.408;2023-04-03T04:05:18;9.07;;;4.77;;
11504;SDS011;5809;53.262;10.408;2023-04-03T04:07:47;8.63;;;4.27;;
11504;SDS011;5809;53.262;10.408;2023-04-03T04:10:14;9.97;;;4.60;;
11504;SDS011;5809;53.262;10.408;2023-04-03T04:12:41;9.87;;;3.60;;
11504;SDS011;5809;53.262;10.408;2023-04-03T04:15:08;6.87;;;3.67;;
11504;SDS011;5809;53.262;10.408;2023-04-03T04:17:36;8.83;;;3.60;;
11504;SDS011;5809;53.262;10.408;2023-04-03T04:20:03;7.97;;;3.33;;
11504;SDS011;5809;53.262;10.408;2023-04-03T04:22:31;9.73;;;4.20;;
11504;SDS011;5809;53.262;10.408;2023-04-03T04:24:59;6.87;;;3.73;;
11504;SDS011;5809;53.262;10.408;2023-04-03T04:27:26;8.50;;;4.13;;
11504;SDS011;5809;53.262;10.408;2023-04-03T04:29:53;9.63;;;4.07;;
11504;SDS011;5809;53.262;10.408;2023-04-03T04:32:20;13.57;;;4.40;;
11504;SDS011;5809;53.262;10.408;2023-04-03T04:34:47;10.57;;;3.93;;
11504;SDS011;5809;53.262;10.408;2023-04-03T04:37:14;6.63;;;3.50;;
11504;SDS011;5809;53.262;10.408;2023-04-03T04:39:41;9.67;;;4.17;;
11504;SDS011;5809;53.262;10.408;2023-04-03T04:42:09;9.07;;;4.20;;
11504;SDS011;5809;53.262;10.408;2023-04-03T04:44:37;12.80;;;4.47;;
11504;SDS011;5809;53.262;10.408;2023-04-03T04:47:04;11.50;;;4.00;;
11504;SDS011;5809;53.262;10.408;2023-04-03T04:49:31;10.30;;;4.00;;
11504;SDS011;5809;53.262;10.408;2023-04-03T04:51:58;7.63;;;4.53;;
11504;SDS011;5809;53.262;10.408;2023-04-03T04:54:25;6.37;;;3.93;;
11504;SDS011;5809;53.262;10.408;2023-04-03T04:56:53;9.57;;;4.23;;
11504;SDS011;5809;53.262;10.408;2023-04-03T04:59:21;10.90;;;4.90;;
11504;SDS011;5809;53.262;10.408;2023-04-03T05:01:48;8.53;;;4.30;;
11504;SDS011;5809;53.262;10.408;2023-04-03T05:04:15;8.57;;;4.37;;
11504;SDS011;5809;53.262;10.408;2023-04-03T05:06:42;8.40;;;4.13;;
11504;SDS011;5809;53.262;10.408;2023-04-03T05:09:10;8.63;;;4.13;;
11504;SDS011;5809;53.262;10.408;2023-04-03T05:11:37;12.30;;;4.60;;
11504;SDS011;5809;53.262;10.408;2023-04-03T05:14:04;12.43;;;4.90;;
11504;SDS011;5809;53.262;10.408;2023-04-03T05:16:33;13.00;;;5.60;;
11504;SDS011;5809;53.262;10.408;2023-04-03T05:19:00;8.60;;;4.83;;
11504;SDS011;5809;53.262;10.408;2023-04-03T05:21:27;6.53;;;4.57;;
11504;SDS011;5809;53.262;10.408;2023-04-03T05:23:57;11.03;;;4.53;;
11504;SDS011;5809;53.262;10.408;2023-04-03T05:26:24;8.37;;;4.00;;
11504;SDS011;5809;53.262;10.408;2023-04-03T05:28:51;9.83;;;4.10;;
11504;SDS011;5809;53.262;10.408;2023-04-03T05:31:18;8.43;;;3.93;;
11504;SDS011;5809;53.262;10.408;2023-04-03T05:33:47;9.50;;;4.00;;
11504;SDS011;5809;53.262;10.408;2023-04-03T05:36:14;8.47;;;4.13;;
11504;SDS011;5809;53.262;10.408;2023-04-03T05:38:41;5.50;;;3.40;;
11504;SDS011;5809;53.262;10.408;2023-04-03T05:41:08;7.93;;;3.33;;
11504;SDS011;5809;53.262;10.408;2023-04-03T05:43:35;8.90;;;3.57;;
11504;SDS011;5809;53.262;10.408;2023-04-03T05:46:04;9.80;;;3.90;;
11504;SDS011;5809;53.262;10.408;2023-04-03T05:48:34;8.17;;;3.63;;
11504;SDS011;5809;53.262;10.408;2023-04-03T05:51:03;8.37;;;3.47;;
11504;SDS011;5809;53.262;10.408;2023-04-03T05:53:31;6.73;;;3.10;;
11504;SDS011;5809;53.262;10.408;2023-04-03T05:56:00;7.67;;;3.07;;
11504;SDS011;5809;53.262;10.408;2023-04-03T05:58:27;6.00;;;2.97;;
11504;SDS011;5809;53.262;10.408;2023-04-03T06:00:54;10.83;;;3.47;;
11504;SDS011;5809;53.262;10.408;2023-04-03T06:03:22;11.07;;;3.10;;
11504;SDS011;5809;53.262;10.408;2023-04-03T06:05:49;6.77;;;3.50;;
11504;SDS011;5809;53.262;10.408;2023-04-03T06:08:17;8.50;;;3.50;;
11504;SDS011;5809;53.262;10.408;2023-04-03T06:10:44;7.70;;;4.10;;
11504;SDS011;5809;53.262;10.408;2023-04-03T06:13:11;7.10;;;3.93;;
11504;SDS011;5809;53.262;10.408;2023-04-03T06:15:38;6.50;;;3.47;;
11504;SDS011;5809;53.262;10.408;2023-04-03T06:18:05;5.47;;;3.40;;
11504;SDS011;5809;53.262;10.408;2023-04-03T06:20:33;9.73;;;3.30;;
11504;SDS011;5809;53.262;10.408;2023-04-03T06:23:00;7.40;;;3.33;;
11504;SDS011;5809;53.262;10.408;2023-04-03T06:25:28;6.40;;;3.00;;
11504;SDS011;5809;53.262;10.408;2023-04-03T06:27:56;5.97;;;2.90;;
11504;SDS011;5809;53.262;10.408;2023-04-03T06:30:23;7.70;;;2.70;;
11504;SDS011;5809;53.262;10.408;2023-04-03T06:32:50;4.80;;;2.10;;
11504;SDS011;5809;53.262;10.408;2023-04-03T06:35:18;6.17;;;2.70;;
11504;SDS011;5809;53.262;10.408;2023-04-03T06:37:46;5.10;;;2.07;;
11504;SDS011;5809;53.262;10.408;2023-04-03T06:40:14;6.40;;;2.45;;
11504;SDS011;5809;53.262;10.408;2023-04-03T06:42:47;6.65;;;1.90;;
11504;SDS011;5809;53.262;10.408;2023-04-03T06:45:14;3.53;;;1.73;;
11504;SDS011;5809;53.262;10.408;2023-04-03T06:47:41;5.57;;;2.05;;
11504;SDS011;5809;53.262;10.408;2023-04-03T06:50:09;3.58;;;1.92;;
11504;SDS011;5809;53.262;10.408;2023-04-03T06:52:39;6.68;;;2.20;;
11504;SDS011;5809;53.262;10.408;2023-04-03T06:55:06;5.30;;;2.20;;
11504;SDS011;5809;53.262;10.408;2023-04-03T06:57:34;5.60;;;2.28;;
11504;SDS011;5809;53.262;10.408;2023-04-03T07:00:03;4.47;;;2.30;;
11504;SDS011;5809;53.262;10.408;2023-04-03T07:02:32;3.50;;;1.80;;
11504;SDS011;5809;53.262;10.408;2023-04-03T07:04:59;5.22;;;2.10;;
11504;SDS011;5809;53.262;10.408;2023-04-03T07:07:26;3.47;;;1.80;;
11504;SDS011;5809;53.262;10.408;2023-04-03T07:09:53;3.28;;;1.83;;
11504;SDS011;5809;53.262;10.408;2023-04-03T07:12:20;5.28;;;1.75;;
11504;SDS011;5809;53.262;10.408;2023-04-03T07:14:47;6.88;;;3.05;;
11504;SDS011;5809;53.262;10.408;2023-04-03T07:17:15;4.78;;;2.10;;
11504;SDS011;5809;53.262;10.408;2023-04-03T07:19:42;3.50;;;1.90;;
11504;SDS011;5809;53.262;10.408;2023-04-03T07:22:09;3.25;;;1.83;;
11504;SDS011;5809;53.262;10.408;2023-04-03T07:24:37;6.72;;;2.13;;
11504;SDS011;5809;53.262;10.408;2023-04-03T07:27:04;5.38;;;2.40;;
11504;SDS011;5809;53.262;10.408;2023-04-03T07:29:33;3.95;;;1.38;;
11504;SDS011;5809;53.262;10.408;2023-04-03T07:32:00;3.42;;;1.50;;
11504;SDS011;5809;53.262;10.408;2023-04-03T07:34:28;2.65;;;1.50;;
11504;SDS011;5809;53.262;10.408;2023-04-03T07:36:55;4.97;;;1.90;;
11504;SDS011;5809;53.262;10.408;2023-04-03T07:39:22;5.50;;;1.60;;
11504;SDS011;5809;53.262;10.408;2023-04-03T07:41:49;4.50;;;1.70;;
11504;SDS011;5809;53.262;10.408;2023-04-03T07:44:17;4.10;;;1.80;;
11504;SDS011;5809;53.262;10.408;2023-04-03T07:46:44;5.47;;;1.60;;
11504;SDS011;5809;53.262;10.408;2023-04-03T07:49:11;5.32;;;1.60;;
11504;SDS011;5809;53.262;10.408;2023-04-03T07:51:40;4.55;;;1.40;;
11504;SDS011;5809;53.262;10.408;2023-04-03T07:54:07;5.35;;;1.50;;
11504;SDS011;5809;53.262;10.408;2023-04-03T07:56:33;4.25;;;1.65;;
11504;SDS011;5809;53.262;10.408;2023-04-03T07:59:00;4.15;;;1.42;;
11504;SDS011;5809;53.262;10.408;2023-04-03T08:01:27;2.67;;;1.40;;
11504;SDS011;5809;53.262;10.408;2023-04-03T08:03:57;3.25;;;1.50;;
11504;SDS011;5809;53.262;10.408;2023-04-03T08:06:24;5.00;;;1.35;;
11504;SDS011;5809;53.262;10.408;2023-04-03T08:08:52;4.28;;;1.67;;
11504;SDS011;5809;53.262;10.408;2023-04-03T08:11:19;4.15;;;1.65;;
11504;SDS011;5809;53.262;10.408;2023-04-03T08:13:48;4.90;;;1.33;;
11504;SDS011;5809;53.262;10.408;2023-04-03T08:16:16;4.95;;;1.55;;
11504;SDS011;5809;53.262;10.408;2023-04-03T08:18:46;3.92;;;1.42;;
11504;SDS011;5809;53.262;10.408;2023-04-03T08:21:13;4.72;;;1.38;;
11504;SDS011;5809;53.262;10.408;2023-04-03T08:23:40;2.67;;;1.30;;
11504;SDS011;5809;53.262;10.408;2023-04-03T08:26:09;3.97;;;1.40;;
11504;SDS011;5809;53.262;10.408;2023-04-03T08:28:38;3.10;;;1.40;;
11504;SDS011;5809;53.262;10.408;2023-04-03T08:31:07;5.13;;;1.50;;
11504;SDS011;5809;53.262;10.408;2023-04-03T08:33:36;2.67;;;1.17;;
11504;SDS011;5809;53.262;10.408;2023-04-03T08:36:03;2.45;;;1.00;;
11504;SDS011;5809;53.262;10.408;2023-04-03T08:38:31;3.90;;;2.20;;
11504;SDS011;5809;53.262;10.408;2023-04-03T08:40:59;4.82;;;1.23;;
11504;SDS011;5809;53.262;10.408;2023-04-03T08:43:33;2.38;;;1.10;;
11504;SDS011;5809;53.262;10.408;2023-04-03T08:46:09;3.88;;;1.52;;
11504;SDS011;5809;53.262;10.408;2023-04-03T08:48:41;3.70;;;1.20;;
11504;SDS011;5809;53.262;10.408;2023-04-03T08:51:10;6.47;;;4.30;;
11504;SDS011;5809;53.262;10.408;2023-04-03T08:53:42;5.13;;;3.17;;
11504;SDS011;5809;53.262;10.408;2023-04-03T08:56:15;3.80;;;1.65;;
11504;SDS011;5809;53.262;10.408;2023-04-03T08:58:47;2.45;;;1.13;;
11504;SDS011;5809;53.262;10.408;2023-04-03T09:01:19;1.95;;;1.02;;
11504;SDS011;5809;53.262;10.408;2023-04-03T09:03:47;1.90;;;0.90;;
11504;SDS011;5809;53.262;10.408;2023-04-03T09:06:15;3.92;;;1.30;;
11504;SDS011;5809;53.262;10.408;2023-04-03T09:08:46;1.73;;;1.00;;
11504;SDS011;5809;53.262;10.408;2023-04-03T09:11:19;3.45;;;1.27;;
11504;SDS011;5809;53.262;10.408;2023-04-03T09:13:54;3.22;;;1.20;;
11504;SDS011;5809;53.262;10.408;2023-04-03T09:16:28;1.98;;;1.13;;
11504;SDS011;5809;53.262;10.408;2023-04-03T09:19:15;1.60;;;1.10;;
11504;SDS011;5809;53.262;10.408;2023-04-03T09:21:48;2.72;;;1.30;;
11504;SDS011;5809;53.262;10.408;2023-04-03T09:24:15;2.33;;;1.20;;
11504;SDS011;5809;53.262;10.408;2023-04-03T09:26:44;6.18;;;1.35;;
11504;SDS011;5809;53.262;10.408;2023-04-03T09:29:19;2.58;;;1.10;;
11504;SDS011;5809;53.262;10.408;2023-04-03T09:31:49;2.60;;;1.10;;
11504;SDS011;5809;53.262;10.408;2023-04-03T09:34:20;2.45;;;1.23;;
11504;SDS011;5809;53.262;10.408;2023-04-03T09:36:51;3.17;;;1.13;;
11504;SDS011;5809;53.262;10.408;2023-04-03T09:39:20;4.82;;;1.60;;
11504;SDS011;5809;53.262;10.408;2023-04-03T09:41:55;2.13;;;1.38;;
11504;SDS011;5809;53.262;10.408;2023-04-03T09:44:26;3.70;;;1.40;;
11504;SDS011;5809;53.262;10.408;2023-04-03T09:46:54;3.72;;;1.50;;
11504;SDS011;5809;53.262;10.408;2023-04-03T09:49:22;2.80;;;1.23;;
11504;SDS011;5809;53.262;10.408;2023-04-03T09:51:49;3.25;;;1.63;;
11504;SDS011;5809;53.262;10.408;2023-04-03T09:54:36;1.95;;;1.00;;
11504;SDS011;5809;53.262;10.408;2023-04-03T09:57:07;1.92;;;1.40;;
11504;SDS011;5809;53.262;10.408;2023-04-03T09:59:39;3.50;;;2.33;;
11504;SDS011;5809;53.262;10.408;2023-04-03T10:05:03;2.33;;;1.15;;
11504;SDS011;5809;53.262;10.408;2023-04-03T10:07:50;1.95;;;1.02;;
11504;SDS011;5809;53.262;10.408;2023-04-03T10:10:18;8.93;;;6.97;;
11504;SDS011;5809;53.262;10.408;2023-04-03T10:12:48;1.73;;;1.00;;
11504;SDS011;5809;53.262;10.408;2023-04-03T10:15:32;2.22;;;1.00;;
11504;SDS011;5809;53.262;10.408;2023-04-03T10:18:07;2.67;;;1.25;;
11504;SDS011;5809;53.262;10.408;2023-04-03T10:20:49;2.17;;;1.17;;
11504;SDS011;5809;53.262;10.408;2023-04-03T10:23:18;2.28;;;1.30;;
11504;SDS011;5809;53.262;10.408;2023-04-03T10:25:54;2.85;;;1.10;;
11504;SDS011;5809;53.262;10.408;2023-04-03T10:28:31;1.80;;;1.20;;
11504;SDS011;5809;53.262;10.408;2023-04-03T10:31:10;2.92;;;1.35;;
11504;SDS011;5809;53.262;10.408;2023-04-03T10:33:45;5.53;;;2.10;;
11504;SDS011;5809;53.262;10.408;2023-04-03T10:36:23;3.92;;;1.60;;
11504;SDS011;5809;53.262;10.408;2023-04-03T10:39:00;1.98;;;1.70;;
11504;SDS011;5809;53.262;10.408;2023-04-03T10:41:39;2.90;;;1.52;;
11504;SDS011;5809;53.262;10.408;2023-04-03T10:44:15;3.80;;;2.15;;
11504;SDS011;5809;53.262;10.408;2023-04-03T10:46:49;6.28;;;4.90;;
11504;SDS011;5809;53.262;10.408;2023-04-03T10:49:22;6.05;;;4.75;;
11504;SDS011;5809;53.262;10.408;2023-04-03T10:52:00;6.85;;;2.42;;
11504;SDS011;5809;53.262;10.408;2023-04-03T10:54:34;4.53;;;3.10;;
11504;SDS011;5809;53.262;10.408;2023-04-03T10:57:05;9.95;;;7.82;;
11504;SDS011;5809;53.262;10.408;2023-04-03T10:59:35;9.70;;;7.22;;
11504;SDS011;5809;53.262;10.408;2023-04-03T11:02:16;6.10;;;3.47;;
11504;SDS011;5809;53.262;10.408;2023-04-03T11:04:50;3.47;;;2.63;;
11504;SDS011;5809;53.262;10.408;2023-04-03T11:07:20;2.67;;;1.15;;
11504;SDS011;5809;53.262;10.408;2023-04-03T11:09:48;4.75;;;2.45;;
11504;SDS011;5809;53.262;10.408;2023-04-03T11:12:21;2.75;;;1.30;;
11504;SDS011;5809;53.262;10.408;2023-04-03T11:14:50;5.25;;;3.00;;
11504;SDS011;5809;53.262;10.408;2023-04-03T11:17:25;4.57;;;3.72;;
11504;SDS011;5809;53.262;10.408;2023-04-03T11:19:58;2.22;;;1.27;;
11504;SDS011;5809;53.262;10.408;2023-04-03T11:22:32;5.03;;;1.77;;
11504;SDS011;5809;53.262;10.408;2023-04-03T11:25:03;8.05;;;4.03;;
11504;SDS011;5809;53.262;10.408;2023-04-03T11:27:33;4.03;;;2.58;;
11504;SDS011;5809;53.262;10.408;2023-04-03T11:30:02;4.38;;;1.40;;
11504;SDS011;5809;53.262;10.408;2023-04-03T11:32:38;5.63;;;1.70;;
11504;SDS011;5809;53.262;10.408;2023-04-03T11:35:08;5.35;;;3.00;;
11504;SDS011;5809;53.262;10.408;2023-04-03T11:37:38;4.88;;;2.88;;
11504;SDS011;5809;53.262;10.408;2023-04-03T11:40:21;4.43;;;2.63;;
11504;SDS011;5809;53.262;10.408;2023-04-03T11:42:52;4.45;;;2.35;;
11504;SDS011;5809;53.262;10.408;2023-04-03T11:51:02;4.03;;;1.88;;
11504;SDS011;5809;53.262;10.408;2023-04-03T11:53:49;2.92;;;1.80;;
11504;SDS011;5809;53.262;10.408;2023-04-03T11:56:29;3.47;;;1.40;;
11504;SDS011;5809;53.262;10.408;2023-04-03T12:01:50;2.45;;;1.58;;
11504;SDS011;5809;53.262;10.408;2023-04-03T12:04:18;3.63;;;3.00;;
11504;SDS011;5809;53.262;10.408;2023-04-03T12:06:51;6.97;;;5.15;;
11504;SDS011;5809;53.262;10.408;2023-04-03T12:09:24;8.30;;;6.03;;
11504;SDS011;5809;53.262;10.408;2023-04-03T12:11:58;2.53;;;1.45;;
11504;SDS011;5809;53.262;10.408;2023-04-03T12:14:27;3.95;;;2.70;;
11504;SDS011;5809;53.262;10.408;2023-04-03T12:16:55;2.40;;;1.42;;
11504;SDS011;5809;53.262;10.408;2023-04-03T12:19:33;4.53;;;1.92;;
11504;SDS011;5809;53.262;10.408;2023-04-03T12:22:13;2.97;;;1.40;;
11504;SDS011;5809;53.262;10.408;2023-04-03T12:24:41;5.63;;;1.58;;
11504;SDS011;5809;53.262;10.408;2023-04-03T12:27:14;2.85;;;1.40;;
11504;SDS011;5809;53.262;10.408;2023-04-03T12:29:46;3.20;;;1.45;;
11504;SDS011;5809;53.262;10.408;2023-04-03T12:32:17;5.45;;;1.38;;
11504;SDS011;5809;53.262;10.408;2023-04-03T12:34:51;2.72;;;1.23;;
11504;SDS011;5809;53.262;10.408;2023-04-03T12:37:24;2.65;;;1.30;;
11504;SDS011;5809;53.262;10.408;2023-04-03T12:40:00;4.25;;;1.13;;
11504;SDS011;5809;53.262;10.408;2023-04-03T12:45:43;3.23;;;1.97;;
11504;SDS011;5809;53.262;10.408;2023-04-03T12:48:14;5.70;;;1.73;;
11504;SDS011;5809;53.262;10.408;2023-04-03T12:50:43;2.45;;;1.50;;
11504;SDS011;5809;53.262;10.408;2023-04-03T12:53:13;2.63;;;1.30;;
11504;SDS011;5809;53.262;10.408;2023-04-03T12:55:43;3.53;;;1.92;;
11504;SDS011;5809;53.262;10.408;2023-04-03T12:58:14;2.78;;;1.40;;
11504;SDS011;5809;53.262;10.408;2023-04-03T13:00:43;4.70;;;2.33;;
11504;SDS011;5809;53.262;10.408;2023-04-03T13:03:19;5.28;;;3.35;;
11504;SDS011;5809;53.262;10.408;2023-04-03T13:05:48;3.60;;;1.85;;
11504;SDS011;5809;53.262;10.408;2023-04-03T13:08:17;2.70;;;1.45;;
11504;SDS011;5809;53.262;10.408;2023-04-03T13:10:50;2.92;;;1.30;;
11504;SDS011;5809;53.262;10.408;2023-04-03T13:13:21;2.72;;;1.38;;
11504;SDS011;5809;53.262;10.408;2023-04-03T13:15:49;3.17;;;1.52;;
11504;SDS011;5809;53.262;10.408;2023-04-03T13:18:22;1.25;;;1.13;;
11504;SDS011;5809;53.262;10.408;2023-04-03T13:20:50;2.83;;;1.40;;
11504;SDS011;5809;53.262;10.408;2023-04-03T13:23:19;4.00;;;1.45;;
11504;SDS011;5809;53.262;10.408;2023-04-03T13:25:48;3.13;;;1.45;;
11504;SDS011;5809;53.262;10.408;2023-04-03T13:28:17;2.85;;;1.30;;
11504;SDS011;5809;53.262;10.408;2023-04-03T13:30:54;2.03;;;1.00;;
11504;SDS011;5809;53.262;10.408;2023-04-03T13:33:22;3.88;;;1.25;;
11504;SDS011;5809;53.262;10.408;2023-04-03T13:35:54;3.28;;;1.15;;
11504;SDS011;5809;53.262;10.408;2023-04-03T13:38:24;2.35;;;1.20;;
11504;SDS011;5809;53.262;10.408;2023-04-03T13:40:52;1.83;;;1.10;;
11504;SDS011;5809;53.262;10.408;2023-04-03T13:43:20;2.05;;;1.05;;
11504;SDS011;5809;53.262;10.408;2023-04-03T13:45:55;2.67;;;1.48;;
11504;SDS011;5809;53.262;10.408;2023-04-03T13:48:23;2.50;;;1.48;;
11504;SDS011;5809;53.262;10.408;2023-04-03T13:50:52;2.83;;;1.60;;
11504;SDS011;5809;53.262;10.408;2023-04-03T13:53:23;3.10;;;1.42;;
11504;SDS011;5809;53.262;10.408;2023-04-03T13:55:53;3.35;;;1.10;;
11504;SDS011;5809;53.262;10.408;2023-04-03T13:58:23;2.92;;;1.50;;
11504;SDS011;5809;53.262;10.408;2023-04-03T14:00:51;2.97;;;1.20;;
11504;SDS011;5809;53.262;10.408;2023-04-03T14:03:21;2.03;;;1.20;;
11504;SDS011;5809;53.262;10.408;2023-04-03T14:05:48;2.88;;;1.20;;
11504;SDS011;5809;53.262;10.408;2023-04-03T14:08:16;1.00;;;0.90;;
11504;SDS011;5809;53.262;10.408;2023-04-03T14:10:44;2.00;;;1.08;;
11504;SDS011;5809;53.262;10.408;2023-04-03T14:13:12;2.92;;;1.20;;
11504;SDS011;5809;53.262;10.408;2023-04-03T14:15:41;2.88;;;1.30;;
11504;SDS011;5809;53.262;10.408;2023-04-03T14:18:10;4.35;;;1.30;;
11504;SDS011;5809;53.262;10.408;2023-04-03T14:20:37;2.50;;;1.30;;
11504;SDS011;5809;53.262;10.408;2023-04-03T14:23:04;3.70;;;1.50;;
11504;SDS011;5809;53.262;10.408;2023-04-03T14:25:31;2.13;;;1.67;;
11504;SDS011;5809;53.262;10.408;2023-04-03T14:28:00;2.42;;;1.02;;
11504;SDS011;5809;53.262;10.408;2023-04-03T14:30:29;4.25;;;1.63;;
11504;SDS011;5809;53.262;10.408;2023-04-03T14:32:57;1.58;;;1.35;;
11504;SDS011;5809;53.262;10.408;2023-04-03T14:35:25;5.28;;;3.00;;
11504;SDS011;5809;53.262;10.408;2023-04-03T14:37:52;4.35;;;2.20;;
11504;SDS011;5809;53.262;10.408;2023-04-03T14:40:22;4.25;;;2.15;;
11504;SDS011;5809;53.262;10.408;2023-04-03T14:42:49;2.47;;;1.70;;
11504;SDS011;5809;53.262;10.408;2023-04-03T14:45:21;3.17;;;1.25;;
11504;SDS011;5809;53.262;10.408;2023-04-03T14:47:50;3.90;;;2.78;;
11504;SDS011;5809;53.262;10.408;2023-04-03T14:50:18;2.35;;;1.70;;
11504;SDS011;5809;53.262;10.408;2023-04-03T14:52:47;2.75;;;1.98;;
11504;SDS011;5809;53.262;10.408;2023-04-03T14:55:15;3.13;;;1.10;;
11504;SDS011;5809;53.262;10.408;2023-04-03T14:57:44;2.13;;;0.80;;
11504;SDS011;5809;53.262;10.408;2023-04-03T15:00:12;2.22;;;1.20;;
11504;SDS011;5809;53.262;10.408;2023-04-03T15:02:41;2.83;;;1.48;;
11504;SDS011;5809;53.262;10.408;2023-04-03T15:05:09;2.38;;;1.60;;
11504;SDS011;5809;53.262;10.408;2023-04-03T15:07:38;3.78;;;1.70;;
11504;SDS011;5809;53.262;10.408;2023-04-03T15:10:14;4.10;;;1.10;;
11504;SDS011;5809;53.262;10.408;2023-04-03T15:12:43;1.45;;;1.00;;
11504;SDS011;5809;53.262;10.408;2023-04-03T15:15:11;1.52;;;0.90;;
11504;SDS011;5809;53.262;10.408;2023-04-03T15:17:38;1.67;;;1.17;;